createdAt,value
2022-08-05T00:01:27.767Z,78.47
2022-08-05T00:03:57.029Z,81.94
2022-08-05T00:06:28.916Z,89.48
2022-08-05T00:08:56.019Z,76.06
2022-08-05T00:11:30.262Z,84.50
2022-08-05T00:14:02.481Z,82.22
2022-08-05T00:16:53.746Z,75.91
2022-08-05T00:19:22.687Z,76.55
2022-08-05T00:21:50.122Z,73.83
2022-08-05T00:24:19.351Z,91.52
2022-08-05T00:26:52.883Z,78.63
2022-08-05T00:29:22.723Z,78.51
2022-08-05T00:32:10.530Z,85.67
2022-08-05T00:34:56.127Z,89.28
2022-08-05T00:37:10.923Z,82.76
2022-08-05T00:39:57.317Z,77.17
2022-08-05T00:42:37.138Z,83.54
2022-08-05T00:45:06.626Z,74.94
2022-08-05T00:47:56.905Z,73.59
2022-08-05T00:50:25.121Z,73.56
2022-08-05T00:52:55.002Z,81.44
2022-08-05T00:55:22.385Z,78.41
2022-08-05T00:57:55.691Z,81.35
2022-08-05T01:00:29.743Z,81.91
2022-08-05T01:02:58.146Z,74.84
2022-08-05T01:05:27.474Z,77.66
2022-08-05T01:08:40.996Z,77.95
2022-08-05T01:10:51.820Z,77.97
2022-08-05T01:13:57.314Z,79.21
2022-08-05T01:16:34.929Z,81.30
2022-08-05T01:19:14.322Z,77.79
2022-08-05T01:21:58.387Z,85.66
2022-08-05T01:24:52.496Z,92.31
2022-08-05T01:27:50.477Z,87.05
2022-08-05T01:30:34.007Z,81.02
2022-08-05T01:33:08.510Z,85.50
2022-08-05T01:35:52.214Z,82.47
2022-08-05T01:38:27.241Z,84.38
2022-08-05T01:41:01.921Z,79.81
2022-08-05T01:43:31.192Z,86.98
2022-08-05T01:45:58.310Z,75.21
2022-08-05T01:48:35.749Z,77.75
2022-08-05T01:51:12.533Z,79.84
2022-08-05T01:53:55.088Z,78.02
2022-08-05T01:58:10.034Z,81.36
2022-08-05T01:59:23.142Z,80.32
2022-08-05T02:01:51.521Z,78.17
2022-08-05T02:04:24.129Z,77.58
2022-08-05T02:06:52.708Z,79.51
2022-08-05T02:09:20.553Z,78.53
2022-08-05T02:12:06.062Z,79.21
2022-08-05T02:14:53.511Z,81.81
2022-08-05T02:18:27.948Z,77.89
2022-08-05T02:20:26.245Z,76.26
2022-08-05T02:23:03.086Z,85.89
2022-08-05T02:25:49.092Z,78.07
2022-08-05T02:28:28.929Z,77.14
2022-08-05T02:31:04.040Z,76.62
2022-08-05T02:33:38.825Z,75.63
2022-08-05T02:36:13.660Z,79.17
2022-08-05T02:38:53.098Z,80.31
2022-08-05T02:41:22.894Z,76.66
2022-08-05T02:44:02.405Z,80.20
2022-08-05T02:46:35.946Z,78.23
2022-08-05T02:49:20.304Z,75.37
2022-08-05T02:52:01.131Z,80.17
2022-08-05T02:54:34.782Z,79.22
2022-08-05T02:57:10.235Z,78.18
2022-08-05T02:59:54.935Z,78.53
2022-08-05T03:02:31.716Z,79.20
2022-08-05T03:04:59.801Z,77.23
2022-08-05T03:08:00.979Z,74.75
2022-08-05T03:10:22.002Z,77.02
2022-08-05T03:12:54.119Z,76.11
2022-08-05T03:15:23.834Z,79.23
2022-08-05T03:17:55.593Z,77.46
2022-08-05T03:20:24.297Z,81.18
2022-08-05T03:22:52.158Z,91.74
2022-08-05T03:25:32.442Z,77.40
2022-08-05T03:28:03.108Z,76.74
2022-08-05T03:30:34.798Z,87.80
2022-08-05T03:33:04.130Z,81.24
2022-08-05T03:35:40.731Z,80.14
2022-08-05T03:38:11.524Z,87.65
2022-08-05T03:40:45.040Z,87.33
2022-08-05T03:43:58.434Z,94.79
2022-08-05T03:46:01.605Z,80.74
2022-08-05T03:48:29.048Z,89.58
2022-08-05T03:52:37.589Z,81.56
2022-08-05T03:55:51.035Z,81.26
2022-08-05T03:57:00.864Z,85.46
2022-08-05T03:59:54.894Z,85.94
2022-08-05T04:02:39.035Z,81.84
2022-08-05T04:05:12.957Z,84.55
2022-08-05T04:07:57.760Z,86.81
2022-08-05T04:10:27.657Z,82.82
2022-08-05T04:12:59.054Z,84.53
2022-08-05T04:15:33.376Z,80.68
2022-08-05T04:18:06.741Z,83.87
2022-08-05T04:20:34.481Z,80.41
2022-08-05T04:23:01.445Z,81.11
2022-08-05T04:25:56.856Z,82.94
2022-08-05T04:28:15.040Z,88.44
2022-08-05T04:30:43.646Z,84.52
2022-08-05T04:33:10.804Z,79.67
2022-08-05T04:36:09.492Z,80.54
2022-08-05T04:38:39.215Z,81.80
2022-08-05T04:41:07.321Z,81.35
2022-08-05T04:43:36.387Z,80.04
2022-08-05T04:46:05.106Z,77.16
2022-08-05T04:48:31.910Z,85.14
2022-08-05T04:51:01.439Z,81.97
2022-08-05T04:53:29.195Z,82.59
2022-08-05T04:56:32.203Z,79.64
2022-08-05T04:58:46.789Z,81.71
2022-08-05T05:01:13.710Z,85.53
2022-08-05T05:03:42.222Z,84.43
2022-08-05T05:06:38.918Z,84.48
2022-08-05T05:08:59.853Z,79.10
2022-08-05T05:11:41.527Z,88.91
2022-08-05T05:14:16.039Z,80.92
2022-08-05T05:16:43.009Z,87.16
2022-08-05T05:19:19.421Z,85.80
2022-08-05T05:21:50.351Z,85.82
2022-08-05T05:24:22.323Z,90.22
2022-08-05T05:27:08.857Z,83.94
2022-08-05T05:30:03.958Z,93.56
2022-08-05T05:32:23.307Z,95.29
2022-08-05T05:34:52.492Z,84.91
2022-08-05T05:37:19.207Z,83.15
2022-08-05T05:39:45.951Z,82.43
2022-08-05T05:42:12.630Z,84.25
2022-08-05T05:44:43.126Z,93.30
2022-08-05T05:47:30.237Z,82.45
2022-08-05T05:50:01.826Z,84.88
2022-08-05T05:52:34.602Z,82.08
2022-08-05T05:55:13.269Z,83.59
2022-08-05T05:57:51.950Z,87.09
2022-08-05T06:00:21.048Z,88.61
2022-08-05T06:02:54.408Z,87.51
2022-08-05T06:05:21.379Z,93.08
2022-08-05T06:07:57.901Z,87.04
2022-08-05T06:10:29.460Z,86.69
2022-08-05T06:13:03.939Z,89.27
2022-08-05T06:16:28.927Z,86.46
2022-08-05T06:18:17.083Z,90.67
2022-08-05T06:20:47.712Z,90.53
2022-08-05T06:23:14.521Z,94.38
2022-08-05T06:26:12.684Z,84.50
2022-08-05T06:28:28.586Z,89.62
2022-08-05T06:30:55.649Z,87.27
2022-08-05T06:33:33.395Z,85.80
2022-08-05T06:36:10.416Z,96.39
2022-08-05T06:38:37.305Z,85.71
2022-08-05T06:41:04.894Z,90.19
2022-08-05T06:43:59.723Z,87.46
2022-08-05T06:46:18.224Z,89.00
2022-08-05T06:48:55.841Z,84.83
2022-08-05T06:51:29.980Z,83.43
2022-08-05T06:54:01.945Z,84.42
2022-08-05T06:56:29.984Z,83.72
2022-08-05T06:58:59.999Z,83.68
2022-08-05T07:01:27.608Z,83.89
2022-08-05T07:04:01.461Z,80.04
2022-08-05T07:06:29.172Z,87.00
2022-08-05T07:08:55.942Z,90.19
2022-08-05T07:11:27.971Z,81.41
2022-08-05T07:14:19.975Z,90.23
2022-08-05T07:17:59.112Z,87.64
2022-08-05T07:22:34.003Z,85.04
2022-08-05T07:25:23.417Z,83.41
2022-08-05T07:27:58.239Z,89.79
2022-08-05T07:30:32.715Z,84.66
2022-08-05T07:33:01.501Z,88.08
2022-08-05T07:36:04.263Z,92.10
2022-08-05T07:38:25.375Z,86.15
2022-08-05T07:41:16.506Z,87.45
2022-08-05T07:43:50.556Z,88.66
2022-08-05T07:46:25.430Z,86.16
2022-08-05T07:49:03.075Z,86.29
2022-08-05T07:51:40.618Z,92.53
2022-08-05T07:54:15.222Z,88.39
2022-08-05T07:57:02.613Z,88.78
2022-08-05T07:59:38.871Z,93.54
2022-08-05T08:02:17.098Z,88.32
2022-08-05T08:04:46.627Z,98.41
2022-08-05T08:07:15.008Z,92.57
2022-08-05T08:09:42.341Z,92.76
2022-08-05T08:12:20.960Z,89.32
2022-08-05T08:14:55.818Z,84.79
2022-08-05T08:17:23.578Z,85.31
2022-08-05T08:20:22.308Z,88.76
2022-08-05T08:22:37.906Z,88.55
2022-08-05T08:25:16.343Z,86.27
2022-08-05T08:27:47.673Z,89.76
2022-08-05T08:30:29.782Z,87.15
2022-08-05T08:33:08.549Z,90.59
2022-08-05T08:35:41.310Z,84.42
2022-08-05T08:38:36.060Z,87.63
2022-08-05T08:41:08.668Z,91.02
2022-08-05T08:45:20.238Z,92.66
2022-08-05T08:46:24.450Z,88.14
2022-08-05T08:49:06.368Z,87.00
2022-08-05T08:52:02.821Z,89.61
2022-08-05T08:54:30.820Z,87.99
2022-08-05T08:56:59.583Z,85.79
2022-08-05T08:59:27.661Z,84.94
2022-08-05T09:02:01.252Z,82.32
2022-08-05T09:04:30.688Z,87.05
2022-08-05T09:06:58.311Z,85.12
2022-08-05T09:09:26.005Z,84.17
2022-08-05T09:12:04.633Z,85.08
2022-08-05T09:14:58.725Z,82.76
2022-08-05T09:17:42.898Z,81.41
2022-08-05T09:20:36.424Z,84.54
2022-08-05T09:23:21.802Z,84.47
2022-08-05T09:26:01.064Z,84.89
2022-08-05T09:28:33.204Z,84.48
2022-08-05T09:31:22.093Z,82.47
2022-08-05T09:33:59.325Z,81.31
2022-08-05T09:36:55.630Z,83.85
2022-08-05T09:39:27.635Z,83.03
2022-08-05T09:42:08.578Z,81.00
2022-08-05T09:44:50.591Z,80.20
2022-08-05T09:47:20.849Z,81.88
2022-08-05T09:50:01.778Z,80.94
2022-08-05T09:52:36.017Z,80.11
2022-08-05T09:55:56.794Z,80.25
2022-08-05T09:57:59.962Z,79.23
2022-08-05T10:00:27.726Z,79.17
2022-08-05T10:02:58.608Z,77.65
2022-08-05T10:05:28.195Z,77.34
2022-08-05T10:08:10.962Z,77.09
2022-08-05T10:10:54.274Z,76.04
2022-08-05T10:13:47.670Z,75.87
2022-08-05T10:16:37.781Z,75.67
2022-08-05T10:19:10.132Z,75.89
2022-08-05T10:21:40.271Z,75.11
2022-08-05T10:24:10.661Z,74.57
2022-08-05T10:26:48.905Z,73.19
2022-08-05T10:30:05.700Z,74.84
2022-08-05T10:33:01.020Z,72.38
2022-08-05T10:34:51.813Z,72.97
2022-08-05T10:37:19.058Z,71.35
2022-08-05T10:39:59.525Z,71.39
2022-08-05T10:42:43.908Z,71.17
2022-08-05T10:45:21.490Z,70.50
2022-08-05T10:48:29.731Z,70.78
2022-08-05T10:51:03.414Z,68.57
2022-08-05T10:54:02.032Z,67.52
2022-08-05T10:56:49.299Z,69.17
2022-08-05T11:00:03.740Z,68.29
2022-08-05T11:02:38.209Z,67.41
2022-08-05T11:05:09.531Z,63.47
2022-08-05T11:08:01.233Z,58.71
2022-08-05T11:10:30.421Z,60.00
2022-08-05T11:12:59.443Z,54.64
2022-08-05T11:16:00.894Z,61.15
2022-08-05T11:18:32.430Z,60.85
2022-08-05T11:21:00.024Z,63.19
2022-08-05T11:24:04.503Z,61.48
2022-08-05T11:26:32.367Z,53.79
2022-08-05T11:29:12.667Z,63.70
2022-08-05T11:31:57.072Z,65.10
2022-08-05T11:34:51.739Z,63.00
2022-08-05T11:38:31.029Z,54.02
2022-08-05T11:41:54.443Z,53.97
2022-08-05T11:44:40.182Z,61.94
2022-08-05T11:47:14.052Z,54.39
2022-08-05T11:49:50.992Z,60.19
2022-08-05T11:52:29.310Z,49.35
2022-08-05T11:54:58.140Z,48.14
2022-08-05T11:57:30.674Z,55.06
2022-08-05T12:00:25.085Z,55.69
2022-08-05T12:02:54.199Z,57.16
2022-08-05T12:05:32.268Z,52.56
2022-08-05T12:08:10.855Z,52.48
2022-08-05T12:10:45.280Z,58.03
2022-08-05T12:13:16.779Z,57.47
2022-08-05T12:15:49.819Z,50.37
2022-08-05T12:18:32.750Z,47.79
2022-08-05T12:21:18.222Z,51.49
2022-08-05T12:24:11.367Z,53.41
2022-08-05T12:26:57.462Z,56.50
2022-08-05T12:29:27.116Z,56.80
2022-08-05T12:32:01.875Z,49.48
2022-08-05T12:34:31.377Z,56.07
2022-08-05T12:37:00.720Z,50.44
2022-08-05T12:39:34.575Z,47.58
2022-08-05T12:42:09.099Z,46.11
2022-08-05T12:44:41.368Z,51.94
2022-08-05T12:47:12.517Z,53.22
2022-08-05T12:50:03.483Z,43.95
2022-08-05T12:52:38.802Z,50.28
2022-08-05T12:55:25.142Z,42.97
2022-08-05T12:58:38.175Z,45.57
2022-08-05T13:02:01.595Z,42.80
2022-08-05T13:03:41.787Z,46.73
2022-08-05T13:06:19.813Z,41.12
2022-08-05T13:08:52.300Z,44.38
2022-08-05T13:12:01.617Z,52.21
2022-08-05T13:14:25.071Z,40.27
2022-08-05T13:17:09.237Z,43.89
2022-08-05T13:19:51.759Z,43.68
2022-08-05T13:22:28.484Z,48.11
2022-08-05T13:25:00.975Z,44.52
2022-08-05T13:27:39.668Z,44.45
2022-08-05T13:30:32.879Z,43.57
2022-08-05T13:32:57.394Z,49.91
2022-08-05T13:35:43.269Z,49.93
2022-08-05T13:38:28.471Z,41.48
2022-08-05T13:40:59.025Z,47.26
2022-08-05T13:43:44.886Z,47.83
2022-08-05T13:46:13.624Z,43.01
2022-08-05T13:48:57.793Z,44.68
2022-08-05T13:51:29.931Z,44.13
2022-08-05T13:54:12.698Z,46.13
2022-08-05T13:56:45.443Z,48.03
2022-08-05T13:59:24.286Z,43.38
2022-08-05T14:01:59.528Z,43.94
2022-08-05T14:04:51.615Z,40.67
2022-08-05T14:07:56.853Z,47.66
2022-08-05T14:10:28.015Z,48.73
2022-08-05T14:12:57.165Z,47.03
2022-08-05T14:16:07.195Z,47.21
2022-08-05T14:18:14.907Z,43.12
2022-08-05T14:20:47.301Z,42.18
2022-08-05T14:23:23.335Z,45.28
2022-08-05T14:25:54.105Z,45.93
2022-08-05T14:28:26.548Z,42.63
2022-08-05T14:30:54.592Z,43.14
2022-08-05T14:33:23.046Z,45.05
2022-08-05T14:35:51.810Z,44.51
2022-08-05T14:38:31.688Z,45.72
2022-08-05T14:41:01.836Z,47.50
2022-08-05T14:43:58.833Z,47.94
2022-08-05T14:46:20.375Z,45.69
2022-08-05T14:48:49.143Z,46.58
2022-08-05T14:51:17.653Z,47.80
2022-08-05T14:53:45.347Z,42.76
2022-08-05T14:56:31.887Z,42.36
2022-08-05T14:58:58.699Z,49.36
2022-08-05T15:01:47.112Z,49.87
2022-08-05T15:04:12.390Z,48.15
2022-08-05T15:06:40.550Z,47.43
2022-08-05T15:09:07.372Z,50.39
2022-08-05T15:11:51.372Z,45.68
2022-08-05T15:14:35.566Z,50.70
2022-08-05T15:17:44.302Z,50.68
2022-08-05T15:19:56.974Z,47.14
2022-08-05T15:22:27.309Z,48.69
2022-08-05T15:24:55.944Z,47.41
2022-08-05T15:27:22.472Z,50.99
2022-08-05T15:29:56.665Z,51.78
2022-08-05T15:32:27.272Z,49.86
2022-08-05T15:34:56.595Z,44.73
2022-08-05T15:38:08.623Z,48.83
2022-08-05T15:41:03.072Z,47.35
2022-08-05T15:43:09.138Z,49.79
2022-08-05T15:45:45.974Z,49.79
2022-08-05T15:48:14.297Z,49.40
2022-08-05T15:50:41.664Z,46.74
2022-08-05T15:53:12.506Z,50.74
2022-08-05T15:56:03.110Z,50.81
2022-08-05T15:58:28.190Z,48.47
2022-08-05T16:01:16.716Z,49.47
2022-08-05T16:03:43.123Z,52.07
2022-08-05T16:06:11.221Z,50.91
2022-08-05T16:08:38.610Z,51.18
2022-08-05T16:11:07.306Z,52.23
2022-08-05T16:13:35.074Z,52.05
2022-08-05T16:16:05.762Z,51.87
2022-08-05T16:18:35.627Z,49.53
2022-08-05T16:21:18.840Z,51.14
2022-08-05T16:23:54.172Z,48.30
2022-08-05T16:26:26.571Z,51.33
2022-08-05T16:28:55.284Z,50.00
2022-08-05T16:31:22.357Z,51.58
2022-08-05T16:33:50.758Z,51.50
2022-08-05T16:36:20.409Z,51.82
2022-08-05T16:38:55.054Z,51.53
2022-08-05T16:42:27.732Z,51.94
2022-08-05T16:44:15.638Z,51.61
2022-08-05T16:46:55.744Z,51.36
2022-08-05T16:49:23.431Z,52.17
2022-08-05T16:51:51.365Z,49.60
2022-08-05T16:54:28.671Z,52.30
2022-08-05T16:56:58.712Z,52.39
2022-08-05T16:59:25.486Z,50.55
2022-08-05T17:01:55.946Z,51.88
2022-08-05T17:04:27.644Z,52.43
2022-08-05T17:07:01.218Z,52.47
2022-08-05T17:09:29.931Z,52.55
2022-08-05T17:11:59.454Z,52.73
2022-08-05T17:14:37.422Z,51.75
2022-08-05T17:17:06.746Z,52.51
2022-08-05T17:19:43.837Z,52.73
2022-08-05T17:22:17.902Z,51.88
2022-08-05T17:24:56.963Z,53.17
2022-08-05T17:27:34.460Z,53.19
2022-08-05T17:30:02.692Z,52.80
2022-08-05T17:32:30.186Z,52.68
2022-08-05T17:35:00.573Z,50.61
2022-08-05T17:37:41.700Z,50.46
2022-08-05T17:40:14.905Z,49.45
2022-08-05T17:42:51.281Z,51.28
2022-08-05T17:45:22.623Z,51.39
2022-08-05T17:47:55.386Z,50.85
2022-08-05T17:50:30.343Z,50.48
2022-08-05T17:53:05.255Z,50.88
2022-08-05T17:55:37.479Z,52.38
2022-08-05T17:58:06.873Z,51.27
2022-08-05T18:00:34.562Z,50.82
2022-08-05T18:03:02.177Z,52.42
2022-08-05T18:05:35.261Z,52.89
2022-08-05T18:08:02.947Z,52.89
2022-08-05T18:10:32.251Z,52.24
2022-08-05T18:13:00.625Z,52.49
2022-08-05T18:15:34.094Z,52.04
2022-08-05T18:18:05.740Z,53.32
2022-08-05T18:20:37.792Z,53.07
2022-08-05T18:23:09.182Z,52.65
2022-08-05T18:25:39.195Z,53.60
2022-08-05T18:28:09.540Z,53.44
2022-08-05T18:30:39.118Z,53.70
2022-08-05T18:33:07.448Z,53.88
2022-08-05T18:35:59.770Z,54.26
2022-08-05T18:38:25.774Z,54.20
2022-08-05T18:41:56.033Z,54.25
2022-08-05T18:43:43.280Z,54.46
2022-08-05T18:46:19.812Z,54.25
2022-08-05T18:48:47.966Z,54.62
2022-08-05T18:52:04.447Z,54.22
2022-08-05T18:54:25.312Z,54.43
2022-08-05T18:56:52.197Z,54.29
2022-08-05T18:59:43.960Z,54.69
2022-08-05T19:02:11.307Z,54.61
2022-08-05T19:05:03.220Z,54.69
2022-08-05T19:07:45.947Z,54.90
2022-08-05T19:10:17.313Z,55.52
2022-08-05T19:12:46.057Z,55.63
2022-08-05T19:15:56.694Z,55.40
2022-08-05T19:18:09.455Z,56.23
2022-08-05T19:20:41.805Z,56.27
2022-08-05T19:24:04.543Z,56.66
2022-08-05T19:26:03.177Z,55.86
2022-08-05T19:28:31.224Z,58.10
2022-08-05T19:31:00.952Z,56.84
2022-08-05T19:33:35.491Z,56.59
2022-08-05T19:36:06.870Z,57.22
2022-08-05T19:38:36.923Z,56.90
2022-08-05T19:41:07.230Z,57.57
2022-08-05T19:44:06.629Z,58.13
2022-08-05T19:46:29.406Z,57.11
2022-08-05T19:49:03.548Z,56.91
2022-08-05T19:52:05.364Z,57.96
2022-08-05T19:54:27.197Z,57.92
2022-08-05T19:57:06.412Z,57.47
2022-08-05T20:00:00.674Z,58.02
2022-08-05T20:02:22.705Z,57.91
2022-08-05T20:04:49.709Z,57.52
2022-08-05T20:07:47.008Z,57.35
2022-08-05T20:10:11.741Z,58.76
2022-08-05T20:12:48.416Z,57.00
2022-08-05T20:15:48.543Z,57.74
2022-08-05T20:18:10.689Z,57.44
2022-08-05T20:20:55.054Z,56.99
2022-08-05T20:23:23.514Z,57.42
2022-08-05T20:25:52.222Z,57.07
2022-08-05T20:28:19.140Z,56.77
2022-08-05T20:30:45.760Z,57.98
2022-08-05T20:33:14.517Z,58.72
2022-08-05T20:35:45.653Z,58.34
2022-08-05T20:38:19.987Z,58.62
2022-08-05T20:40:53.229Z,58.47
2022-08-05T20:43:33.348Z,58.22
2022-08-05T20:46:10.202Z,58.32
2022-08-05T20:48:39.173Z,58.33
2022-08-05T20:51:08.930Z,58.07
2022-08-05T20:53:36.569Z,58.02
2022-08-05T20:56:08.694Z,59.44
2022-08-05T20:58:36.045Z,58.96
2022-08-05T21:01:03.900Z,58.97
2022-08-05T21:03:34.719Z,62.46
2022-08-05T21:06:01.769Z,59.31
2022-08-05T21:08:35.941Z,59.04
2022-08-05T21:11:12.142Z,61.41
2022-08-05T21:13:47.990Z,58.51
2022-08-05T21:16:29.090Z,59.18
2022-08-05T21:18:59.821Z,60.98
2022-08-05T21:21:39.654Z,61.61
2022-08-05T21:24:12.800Z,61.28
2022-08-05T21:26:39.644Z,61.81
2022-08-05T21:29:12.586Z,60.60
2022-08-05T21:31:43.457Z,61.68
2022-08-05T21:34:11.129Z,62.37
2022-08-05T21:36:38.254Z,62.72
2022-08-05T21:39:04.913Z,62.31
2022-08-05T21:41:34.266Z,63.72
2022-08-05T21:44:04.469Z,65.99
2022-08-05T21:46:34.345Z,62.62
2022-08-05T21:49:01.790Z,64.46
2022-08-05T21:52:22.735Z,63.54
2022-08-05T21:54:15.024Z,63.37
2022-08-05T21:56:44.666Z,62.87
2022-08-05T21:59:23.893Z,64.65
2022-08-05T22:01:54.501Z,63.46
2022-08-05T22:04:25.400Z,68.36
2022-08-05T22:06:52.688Z,65.47
2022-08-05T22:09:21.088Z,67.78
2022-08-05T22:11:48.431Z,66.10
2022-08-05T22:14:35.824Z,66.50
2022-08-05T22:17:04.954Z,62.73
2022-08-05T22:20:02.879Z,63.39
2022-08-05T22:22:26.593Z,62.01
2022-08-05T22:25:21.055Z,61.38
2022-08-05T22:28:08.999Z,61.33
2022-08-05T22:30:56.462Z,62.60
2022-08-05T22:33:58.635Z,64.83
2022-08-05T22:36:14.190Z,63.38
2022-08-05T22:38:42.803Z,64.10
2022-08-05T22:41:10.266Z,62.28
2022-08-05T22:43:37.971Z,68.67
2022-08-05T22:46:11.990Z,67.06
2022-08-05T22:48:41.334Z,66.82
2022-08-05T22:51:08.464Z,70.04
2022-08-05T22:53:42.773Z,63.61
2022-08-05T22:56:17.674Z,63.34
2022-08-05T22:58:58.205Z,66.29
2022-08-05T23:02:04.218Z,64.49
2022-08-05T23:04:13.613Z,70.10
2022-08-05T23:06:41.155Z,63.79
2022-08-05T23:09:27.121Z,65.06
2022-08-05T23:11:55.782Z,64.75
2022-08-05T23:14:32.160Z,75.70
2022-08-05T23:17:24.604Z,71.97
2022-08-05T23:20:02.241Z,66.86
2022-08-05T23:22:29.685Z,66.08
2022-08-05T23:24:57.595Z,71.30
2022-08-05T23:27:28.900Z,69.83
2022-08-05T23:30:10.715Z,67.29
2022-08-05T23:32:37.615Z,64.19
2022-08-05T23:35:07.769Z,67.44
2022-08-05T23:37:36.738Z,71.65
2022-08-05T23:40:07.857Z,64.99
2022-08-05T23:42:37.381Z,66.67
2022-08-05T23:45:13.851Z,68.10
2022-08-05T23:47:47.690Z,72.29
2022-08-05T23:50:14.830Z,75.74
2022-08-05T23:52:49.422Z,71.14
2022-08-05T23:55:16.958Z,79.95
2022-08-05T23:57:44.135Z,73.12
